sensor_id;sensor_type;location;lat;lon;timestamp;temperature;humidity
65995;HTU21D;52764;51.036;5.852;2023-03-12T00:01:28;5.27;63.87
65995;HTU21D;52764;51.036;5.852;2023-03-12T00:04:00;5.21;64.09
65995;HTU21D;52764;51.036;5.852;2023-03-12T00:06:26;5.13;64.48
65995;HTU21D;52764;51.036;5.852;2023-03-12T00:08:52;5.15;57.74
65995;HTU21D;52764;51.036;5.852;2023-03-12T00:11:19;5.18;64.51
65995;HTU21D;52764;51.036;5.852;2023-03-12T00:13:53;5.20;64.31
65995;HTU21D;52764;51.036;5.852;2023-03-12T00:16:20;5.17;64.05
65995;HTU21D;52764;51.036;5.852;2023-03-12T00:18:48;5.30;63.89
65995;HTU21D;52764;51.036;5.852;2023-03-12T00:21:14;5.34;63.85
65995;HTU21D;52764;51.036;5.852;2023-03-12T00:23:40;5.39;63.73
65995;HTU21D;52764;51.036;5.852;2023-03-12T00:26:09;5.48;63.49
65995;HTU21D;52764;51.036;5.852;2023-03-12T00:28:35;14.11;63.25
65995;HTU21D;52764;51.036;5.852;2023-03-12T00:31:08;5.68;62.95
65995;HTU21D;52764;51.036;5.852;2023-03-12T00:33:37;5.74;62.86
65995;HTU21D;52764;51.036;5.852;2023-03-12T00:36:03;5.76;62.98
65995;HTU21D;52764;51.036;5.852;2023-03-12T00:38:29;5.82;62.96
65995;HTU21D;52764;51.036;5.852;2023-03-12T00:40:54;5.89;62.56
65995;HTU21D;52764;51.036;5.852;2023-03-12T00:43:20;5.95;68.30
65995;HTU21D;52764;51.036;5.852;2023-03-12T00:45:46;6.01;62.21
65995;HTU21D;52764;51.036;5.852;2023-03-12T00:48:11;6.06;61.77
65995;HTU21D;52764;51.036;5.852;2023-03-12T00:50:37;6.12;61.37
65995;HTU21D;52764;51.036;5.852;2023-03-12T00:53:03;6.12;61.16
65995;HTU21D;52764;51.036;5.852;2023-03-12T00:55:28;6.13;61.21
65995;HTU21D;52764;51.036;5.852;2023-03-12T00:57:54;6.14;61.27
65995;HTU21D;52764;51.036;5.852;2023-03-12T01:00:21;6.12;61.38
65995;HTU21D;52764;51.036;5.852;2023-03-12T01:02:46;6.12;61.18
65995;HTU21D;52764;51.036;5.852;2023-03-12T01:05:13;6.13;60.84
65995;HTU21D;52764;51.036;5.852;2023-03-12T01:07:39;6.15;60.51
65995;HTU21D;52764;51.036;5.852;2023-03-12T01:10:06;6.17;60.28
65995;HTU21D;52764;51.036;5.852;2023-03-12T01:12:32;6.17;60.31
65995;HTU21D;52764;51.036;5.852;2023-03-12T01:14:58;6.20;60.18
65995;HTU21D;52764;51.036;5.852;2023-03-12T01:17:24;6.24;59.98
65995;HTU21D;52764;51.036;5.852;2023-03-12T01:19:50;6.26;59.94
65995;HTU21D;52764;51.036;5.852;2023-03-12T01:22:15;6.34;59.92
65995;HTU21D;52764;51.036;5.852;2023-03-12T01:24:41;15.78;59.66
65995;HTU21D;52764;51.036;5.852;2023-03-12T01:27:07;6.43;59.39
65995;HTU21D;52764;51.036;5.852;2023-03-12T01:29:32;6.50;59.25
65995;HTU21D;52764;51.036;5.852;2023-03-12T01:31:58;6.55;58.99
65995;HTU21D;52764;51.036;5.852;2023-03-12T01:34:24;6.59;58.61
65995;HTU21D;52764;51.036;5.852;2023-03-12T01:36:49;6.59;58.35
65995;HTU21D;52764;51.036;5.852;2023-03-12T01:39:15;6.50;58.27
65995;HTU21D;52764;51.036;5.852;2023-03-12T01:41:41;5.15;58.24
65995;HTU21D;52764;51.036;5.852;2023-03-12T01:44:09;6.65;58.13
65995;HTU21D;52764;51.036;5.852;2023-03-12T01:46:38;6.67;62.04
65995;HTU21D;52764;51.036;5.852;2023-03-12T01:52:17;6.80;57.61
65995;HTU21D;52764;51.036;5.852;2023-03-12T01:54:56;6.74;57.62
65995;HTU21D;52764;51.036;5.852;2023-03-12T01:57:31;6.75;57.80
65995;HTU21D;52764;51.036;5.852;2023-03-12T02:00:07;6.78;57.83
65995;HTU21D;52764;51.036;5.852;2023-03-12T02:02:44;6.84;57.87
65995;HTU21D;52764;51.036;5.852;2023-03-12T02:08:03;6.85;57.55
65995;HTU21D;52764;51.036;5.852;2023-03-12T02:10:29;6.87;57.71
65995;HTU21D;52764;51.036;5.852;2023-03-12T02:12:55;6.89;57.51
65995;HTU21D;52764;51.036;5.852;2023-03-12T02:15:21;6.87;57.06
65995;HTU21D;52764;51.036;5.852;2023-03-12T02:17:48;6.81;56.90
65995;HTU21D;52764;51.036;5.852;2023-03-12T02:23:14;6.76;57.36
65995;HTU21D;52764;51.036;5.852;2023-03-12T02:25:45;6.74;56.75
65995;HTU21D;52764;51.036;5.852;2023-03-12T02:28:14;6.78;56.75
65995;HTU21D;52764;51.036;5.852;2023-03-12T02:30:49;6.78;56.80
65995;HTU21D;52764;51.036;5.852;2023-03-12T02:33:16;6.76;56.74
65995;HTU21D;52764;51.036;5.852;2023-03-12T02:35:42;6.78;56.62
65995;HTU21D;52764;51.036;5.852;2023-03-12T02:41:17;6.83;56.66
65995;HTU21D;52764;51.036;5.852;2023-03-12T02:44:06;6.88;56.51
65995;HTU21D;52764;51.036;5.852;2023-03-12T02:46:39;6.94;56.39
65995;HTU21D;52764;51.036;5.852;2023-03-12T02:49:06;6.94;56.43
65995;HTU21D;52764;51.036;5.852;2023-03-12T02:51:33;6.97;56.56
65995;HTU21D;52764;51.036;5.852;2023-03-12T02:53:59;7.02;56.55
65995;HTU21D;52764;51.036;5.852;2023-03-12T02:56:27;7.07;56.45
65995;HTU21D;52764;51.036;5.852;2023-03-12T02:58:53;7.11;56.43
65995;HTU21D;52764;51.036;5.852;2023-03-12T03:01:20;7.11;56.10
65995;HTU21D;52764;51.036;5.852;2023-03-12T03:03:46;7.12;56.39
65995;HTU21D;52764;51.036;5.852;2023-03-12T03:06:12;7.15;56.32
65995;HTU21D;52764;51.036;5.852;2023-03-12T03:08:39;7.18;56.29
65995;HTU21D;52764;51.036;5.852;2023-03-12T03:11:05;7.20;56.41
65995;HTU21D;52764;51.036;5.852;2023-03-12T03:13:32;7.16;56.36
65995;HTU21D;52764;51.036;5.852;2023-03-12T03:15:59;7.11;56.63
65995;HTU21D;52764;51.036;5.852;2023-03-12T03:18:28;7.12;57.19
65995;HTU21D;52764;51.036;5.852;2023-03-12T03:20:56;7.13;57.42
65995;HTU21D;52764;51.036;5.852;2023-03-12T03:23:22;7.16;57.69
65995;HTU21D;52764;51.036;5.852;2023-03-12T03:25:48;7.18;58.13
65995;HTU21D;52764;51.036;5.852;2023-03-12T03:28:14;7.18;58.29
65995;HTU21D;52764;51.036;5.852;2023-03-12T03:30:39;7.24;58.59
65995;HTU21D;52764;51.036;5.852;2023-03-12T03:33:06;7.23;58.77
65995;HTU21D;52764;51.036;5.852;2023-03-12T03:35:33;7.18;58.69
65995;HTU21D;52764;51.036;5.852;2023-03-12T03:37:59;7.19;59.10
65995;HTU21D;52764;51.036;5.852;2023-03-12T03:40:25;7.19;59.25
65995;HTU21D;52764;51.036;5.852;2023-03-12T03:42:51;7.20;59.19
65995;HTU21D;52764;51.036;5.852;2023-03-12T03:45:17;7.20;59.44
65995;HTU21D;52764;51.036;5.852;2023-03-12T03:47:44;7.16;59.53
65995;HTU21D;52764;51.036;5.852;2023-03-12T03:50:10;7.09;59.95
65995;HTU21D;52764;51.036;5.852;2023-03-12T03:52:36;7.03;60.57
65995;HTU21D;52764;51.036;5.852;2023-03-12T03:55:03;7.05;60.65
65995;HTU21D;52764;51.036;5.852;2023-03-12T03:57:30;7.04;60.98
65995;HTU21D;52764;51.036;5.852;2023-03-12T03:59:56;6.09;60.86
65995;HTU21D;52764;51.036;5.852;2023-03-12T04:02:25;7.05;60.80
65995;HTU21D;52764;51.036;5.852;2023-03-12T04:04:51;7.04;60.87
65995;HTU21D;52764;51.036;5.852;2023-03-12T04:07:18;7.03;61.08
65995;HTU21D;52764;51.036;5.852;2023-03-12T04:09:43;7.04;66.00
65995;HTU21D;52764;51.036;5.852;2023-03-12T04:12:09;7.09;61.16
65995;HTU21D;52764;51.036;5.852;2023-03-12T04:14:41;7.08;61.15
65995;HTU21D;52764;51.036;5.852;2023-03-12T04:17:08;7.04;66.15
65995;HTU21D;52764;51.036;5.852;2023-03-12T04:19:34;7.05;61.25
65995;HTU21D;52764;51.036;5.852;2023-03-12T04:22:02;7.05;61.34
65995;HTU21D;52764;51.036;5.852;2023-03-12T04:24:28;7.03;66.64
65995;HTU21D;52764;51.036;5.852;2023-03-12T04:26:53;7.07;61.76
65995;HTU21D;52764;51.036;5.852;2023-03-12T04:29:19;7.03;61.84
65995;HTU21D;52764;51.036;5.852;2023-03-12T04:31:45;6.95;62.44
65995;HTU21D;52764;51.036;5.852;2023-03-12T04:34:11;6.90;62.86
65995;HTU21D;52764;51.036;5.852;2023-03-12T04:36:37;6.82;63.70
65995;HTU21D;52764;51.036;5.852;2023-03-12T04:39:03;6.82;64.90
65995;HTU21D;52764;51.036;5.852;2023-03-12T04:41:34;6.80;65.65
65995;HTU21D;52764;51.036;5.852;2023-03-12T04:44:05;6.79;66.46
65995;HTU21D;52764;51.036;5.852;2023-03-12T04:46:32;6.78;67.07
65995;HTU21D;52764;51.036;5.852;2023-03-12T04:48:58;6.70;67.63
65995;HTU21D;52764;51.036;5.852;2023-03-12T04:51:28;6.66;68.09
65995;HTU21D;52764;51.036;5.852;2023-03-12T04:53:54;6.65;68.42
65995;HTU21D;52764;51.036;5.852;2023-03-12T04:56:20;6.56;68.71
65995;HTU21D;52764;51.036;5.852;2023-03-12T04:58:46;6.53;69.24
65995;HTU21D;52764;51.036;5.852;2023-03-12T05:03:47;6.64;69.33
65995;HTU21D;52764;51.036;5.852;2023-03-12T05:06:12;6.68;69.20
65995;HTU21D;52764;51.036;5.852;2023-03-12T05:08:38;6.69;69.26
65995;HTU21D;52764;51.036;5.852;2023-03-12T05:11:04;6.72;69.36
65995;HTU21D;52764;51.036;5.852;2023-03-12T05:13:30;6.70;69.40
65995;HTU21D;52764;51.036;5.852;2023-03-12T05:15:56;6.66;69.54
65995;HTU21D;52764;51.036;5.852;2023-03-12T05:18:22;6.68;69.29
65995;HTU21D;52764;51.036;5.852;2023-03-12T05:21:05;6.72;69.79
65995;HTU21D;52764;51.036;5.852;2023-03-12T05:23:32;6.78;69.59
65995;HTU21D;52764;51.036;5.852;2023-03-12T05:25:58;6.79;69.57
65995;HTU21D;52764;51.036;5.852;2023-03-12T05:28:25;16.62;69.57
65995;HTU21D;52764;51.036;5.852;2023-03-12T05:30:55;6.93;69.33
65995;HTU21D;52764;51.036;5.852;2023-03-12T05:33:24;6.94;69.18
65995;HTU21D;52764;51.036;5.852;2023-03-12T05:35:50;6.95;69.18
65995;HTU21D;52764;51.036;5.852;2023-03-12T05:38:16;6.90;69.10
65995;HTU21D;52764;51.036;5.852;2023-03-12T05:40:41;6.87;69.18
65995;HTU21D;52764;51.036;5.852;2023-03-12T05:43:07;6.88;69.20
65995;HTU21D;52764;51.036;5.852;2023-03-12T05:45:34;5.83;69.04
65995;HTU21D;52764;51.036;5.852;2023-03-12T05:47:59;6.98;68.90
65995;HTU21D;52764;51.036;5.852;2023-03-12T05:50:27;6.99;68.87
65995;HTU21D;52764;51.036;5.852;2023-03-12T05:52:53;7.05;68.88
65995;HTU21D;52764;51.036;5.852;2023-03-12T05:55:18;7.14;68.65
65995;HTU21D;52764;51.036;5.852;2023-03-12T05:57:44;7.23;68.49
65995;HTU21D;52764;51.036;5.852;2023-03-12T06:00:13;7.31;68.07
65995;HTU21D;52764;51.036;5.852;2023-03-12T06:02:43;7.35;67.78
65995;HTU21D;52764;51.036;5.852;2023-03-12T06:05:10;7.34;67.75
65995;HTU21D;52764;51.036;5.852;2023-03-12T06:07:37;7.34;67.77
65995;HTU21D;52764;51.036;5.852;2023-03-12T06:10:02;7.34;67.75
65995;HTU21D;52764;51.036;5.852;2023-03-12T06:12:28;7.32;67.77
65995;HTU21D;52764;51.036;5.852;2023-03-12T06:14:54;7.33;67.97
65995;HTU21D;52764;51.036;5.852;2023-03-12T06:17:21;7.35;67.90
65995;HTU21D;52764;51.036;5.852;2023-03-12T06:19:50;7.35;68.15
65995;HTU21D;52764;51.036;5.852;2023-03-12T06:22:18;7.37;68.56
65995;HTU21D;52764;51.036;5.852;2023-03-12T06:24:43;7.39;68.51
65995;HTU21D;52764;51.036;5.852;2023-03-12T06:27:15;7.49;68.80
65995;HTU21D;52764;51.036;5.852;2023-03-12T06:29:41;7.54;68.93
65995;HTU21D;52764;51.036;5.852;2023-03-12T06:32:07;7.58;69.84
65995;HTU21D;52764;51.036;5.852;2023-03-12T06:34:33;7.59;69.32
65995;HTU21D;52764;51.036;5.852;2023-03-12T06:36:59;7.68;69.51
65995;HTU21D;52764;51.036;5.852;2023-03-12T06:39:25;7.75;69.62
65995;HTU21D;52764;51.036;5.852;2023-03-12T06:41:51;7.79;69.64
65995;HTU21D;52764;51.036;5.852;2023-03-12T06:44:17;7.82;69.77
65995;HTU21D;52764;51.036;5.852;2023-03-12T06:46:43;7.87;69.90
65995;HTU21D;52764;51.036;5.852;2023-03-12T06:49:10;7.81;70.30
65995;HTU21D;52764;51.036;5.852;2023-03-12T06:51:35;7.81;70.58
65995;HTU21D;52764;51.036;5.852;2023-03-12T06:54:02;7.75;70.97
65995;HTU21D;52764;51.036;5.852;2023-03-12T06:56:29;7.73;71.64
65995;HTU21D;52764;51.036;5.852;2023-03-12T06:58:55;18.40;71.69
65995;HTU21D;52764;51.036;5.852;2023-03-12T07:01:21;7.76;72.93
65995;HTU21D;52764;51.036;5.852;2023-03-12T07:03:47;7.79;72.90
65995;HTU21D;52764;51.036;5.852;2023-03-12T07:06:17;7.84;73.20
65995;HTU21D;52764;51.036;5.852;2023-03-12T07:08:43;7.88;73.41
65995;HTU21D;52764;51.036;5.852;2023-03-12T07:11:10;7.92;73.61
65995;HTU21D;52764;51.036;5.852;2023-03-12T07:13:36;7.92;74.05
65995;HTU21D;52764;51.036;5.852;2023-03-12T07:16:02;7.93;74.48
65995;HTU21D;52764;51.036;5.852;2023-03-12T07:18:27;18.81;75.09
65995;HTU21D;52764;51.036;5.852;2023-03-12T07:20:53;7.98;75.47
65995;HTU21D;52764;51.036;5.852;2023-03-12T07:23:20;8.02;75.55
65995;HTU21D;52764;51.036;5.852;2023-03-12T07:25:47;8.02;75.94
65995;HTU21D;52764;51.036;5.852;2023-03-12T07:28:14;8.04;76.18
65995;HTU21D;52764;51.036;5.852;2023-03-12T07:30:40;8.08;76.37
65995;HTU21D;52764;51.036;5.852;2023-03-12T07:33:09;8.12;76.64
65995;HTU21D;52764;51.036;5.852;2023-03-12T07:35:37;8.15;76.86
65995;HTU21D;52764;51.036;5.852;2023-03-12T07:38:04;8.20;77.10
65995;HTU21D;52764;51.036;5.852;2023-03-12T07:40:31;8.22;77.48
65995;HTU21D;52764;51.036;5.852;2023-03-12T07:42:57;8.30;77.72
65995;HTU21D;52764;51.036;5.852;2023-03-12T07:45:23;8.33;77.92
65995;HTU21D;52764;51.036;5.852;2023-03-12T07:47:49;8.34;78.31
65995;HTU21D;52764;51.036;5.852;2023-03-12T07:50:16;8.37;78.64
65995;HTU21D;52764;51.036;5.852;2023-03-12T07:52:42;8.81;78.82
65995;HTU21D;52764;51.036;5.852;2023-03-12T07:55:09;8.45;79.01
65995;HTU21D;52764;51.036;5.852;2023-03-12T07:57:35;8.50;79.34
65995;HTU21D;52764;51.036;5.852;2023-03-12T08:00:01;8.56;79.37
65995;HTU21D;52764;51.036;5.852;2023-03-12T08:02:37;8.59;79.50
65995;HTU21D;52764;51.036;5.852;2023-03-12T08:05:03;8.59;79.74
65995;HTU21D;52764;51.036;5.852;2023-03-12T08:07:29;8.53;79.96
65995;HTU21D;52764;51.036;5.852;2023-03-12T08:10:01;8.51;80.33
65995;HTU21D;52764;51.036;5.852;2023-03-12T08:12:29;8.57;80.66
65995;HTU21D;52764;51.036;5.852;2023-03-12T08:14:54;8.64;80.78
65995;HTU21D;52764;51.036;5.852;2023-03-12T08:17:21;8.73;81.03
65995;HTU21D;52764;51.036;5.852;2023-03-12T08:19:46;8.73;80.93
65995;HTU21D;52764;51.036;5.852;2023-03-12T08:22:12;8.73;81.20
65995;HTU21D;52764;51.036;5.852;2023-03-12T08:24:38;8.76;81.26
65995;HTU21D;52764;51.036;5.852;2023-03-12T08:27:04;8.72;81.48
65995;HTU21D;52764;51.036;5.852;2023-03-12T08:29:30;8.78;81.78
65995;HTU21D;52764;51.036;5.852;2023-03-12T08:31:57;8.83;81.84
65995;HTU21D;52764;51.036;5.852;2023-03-12T08:34:23;8.53;81.62
65995;HTU21D;52764;51.036;5.852;2023-03-12T08:36:49;9.00;81.55
65995;HTU21D;52764;51.036;5.852;2023-03-12T08:39:14;9.05;81.39
65995;HTU21D;52764;51.036;5.852;2023-03-12T08:41:40;9.07;81.58
65995;HTU21D;52764;51.036;5.852;2023-03-12T08:44:06;9.12;81.72
65995;HTU21D;52764;51.036;5.852;2023-03-12T08:46:32;9.17;81.80
65995;HTU21D;52764;51.036;5.852;2023-03-12T08:48:57;9.20;82.06
65995;HTU21D;52764;51.036;5.852;2023-03-12T08:51:23;9.33;82.13
65995;HTU21D;52764;51.036;5.852;2023-03-12T08:53:49;9.35;80.51
65995;HTU21D;52764;51.036;5.852;2023-03-12T08:56:15;9.37;82.25
65995;HTU21D;52764;51.036;5.852;2023-03-12T08:58:40;9.39;82.34
65995;HTU21D;52764;51.036;5.852;2023-03-12T09:01:11;9.41;82.30
65995;HTU21D;52764;51.036;5.852;2023-03-12T09:03:37;9.39;82.60
65995;HTU21D;52764;51.036;5.852;2023-03-12T09:06:10;9.41;77.75
65995;HTU21D;52764;51.036;5.852;2023-03-12T09:08:39;9.44;83.07
65995;HTU21D;52764;51.036;5.852;2023-03-12T09:11:05;9.48;83.15
65995;HTU21D;52764;51.036;5.852;2023-03-12T09:13:33;9.53;83.34
65995;HTU21D;52764;51.036;5.852;2023-03-12T09:16:01;9.55;83.58
65995;HTU21D;52764;51.036;5.852;2023-03-12T09:18:28;9.60;83.68
65995;HTU21D;52764;51.036;5.852;2023-03-12T09:20:55;9.66;83.84
65995;HTU21D;52764;51.036;5.852;2023-03-12T09:23:21;9.71;84.17
65995;HTU21D;52764;51.036;5.852;2023-03-12T09:25:48;9.85;84.16
65995;HTU21D;52764;51.036;5.852;2023-03-12T09:28:14;9.98;83.94
65995;HTU21D;52764;51.036;5.852;2023-03-12T09:30:40;10.09;84.05
65995;HTU21D;52764;51.036;5.852;2023-03-12T09:33:06;10.19;83.75
65995;HTU21D;52764;51.036;5.852;2023-03-12T09:35:32;10.28;83.78
65995;HTU21D;52764;51.036;5.852;2023-03-12T09:37:58;10.36;83.55
65995;HTU21D;52764;51.036;5.852;2023-03-12T09:40:29;10.48;83.52
65995;HTU21D;52764;51.036;5.852;2023-03-12T09:42:59;10.64;83.34
65995;HTU21D;52764;51.036;5.852;2023-03-12T09:45:31;10.78;83.01
65995;HTU21D;52764;51.036;5.852;2023-03-12T09:48:04;10.88;82.65
65995;HTU21D;52764;51.036;5.852;2023-03-12T09:50:39;-19.18;82.44
65995;HTU21D;52764;51.036;5.852;2023-03-12T09:55:57;11.08;81.99
65995;HTU21D;52764;51.036;5.852;2023-03-12T09:58:33;11.12;81.84
65995;HTU21D;52764;51.036;5.852;2023-03-12T10:06:24;11.30;81.46
65995;HTU21D;52764;51.036;5.852;2023-03-12T10:09:09;11.33;81.46
65995;HTU21D;52764;51.036;5.852;2023-03-12T10:20:17;11.51;81.08
65995;HTU21D;52764;51.036;5.852;2023-03-12T10:23:00;11.49;81.11
65995;HTU21D;52764;51.036;5.852;2023-03-12T10:28:21;11.75;80.77
65995;HTU21D;52764;51.036;5.852;2023-03-12T10:30:56;11.78;80.61
65995;HTU21D;52764;51.036;5.852;2023-03-12T10:33:51;11.84;80.60
65995;HTU21D;52764;51.036;5.852;2023-03-12T10:36:24;11.92;80.66
65995;HTU21D;52764;51.036;5.852;2023-03-12T10:38:51;12.02;80.35
65995;HTU21D;52764;51.036;5.852;2023-03-12T10:41:21;12.06;80.03
65995;HTU21D;52764;51.036;5.852;2023-03-12T10:43:47;12.11;79.80
65995;HTU21D;52764;51.036;5.852;2023-03-12T10:48:39;12.28;79.53
65995;HTU21D;52764;51.036;5.852;2023-03-12T10:51:07;12.40;79.27
65995;HTU21D;52764;51.036;5.852;2023-03-12T10:53:34;12.55;79.11
65995;HTU21D;52764;51.036;5.852;2023-03-12T10:56:10;12.73;78.64
65995;HTU21D;52764;51.036;5.852;2023-03-12T10:58:40;12.33;78.40
65995;HTU21D;52764;51.036;5.852;2023-03-12T11:01:19;13.18;77.95
65995;HTU21D;52764;51.036;5.852;2023-03-12T11:03:46;13.37;77.31
65995;HTU21D;52764;51.036;5.852;2023-03-12T11:06:27;13.63;76.57
65995;HTU21D;52764;51.036;5.852;2023-03-12T11:09:16;-13.11;75.70
65995;HTU21D;52764;51.036;5.852;2023-03-12T11:11:44;14.21;74.70
65995;HTU21D;52764;51.036;5.852;2023-03-12T11:14:18;14.39;73.95
65995;HTU21D;52764;51.036;5.852;2023-03-12T11:16:45;14.52;73.35
65995;HTU21D;52764;51.036;5.852;2023-03-12T11:19:13;14.64;73.03
65995;HTU21D;52764;51.036;5.852;2023-03-12T11:21:54;14.73;72.47
65995;HTU21D;52764;51.036;5.852;2023-03-12T11:24:21;-11.41;72.07
65995;HTU21D;52764;51.036;5.852;2023-03-12T11:27:23;14.78;71.26
65995;HTU21D;52764;51.036;5.852;2023-03-12T11:29:53;10.59;71.54
65995;HTU21D;52764;51.036;5.852;2023-03-12T11:32:26;15.01;71.26
65995;HTU21D;52764;51.036;5.852;2023-03-12T11:34:55;15.18;70.67
65995;HTU21D;52764;51.036;5.852;2023-03-12T11:48:16;15.48;68.19
65995;HTU21D;52764;51.036;5.852;2023-03-12T12:10:27;13.77;68.24
65995;HTU21D;52764;51.036;5.852;2023-03-12T12:18:40;15.52;67.99
65995;HTU21D;52764;51.036;5.852;2023-03-12T12:21:44;15.73;67.01
65995;HTU21D;52764;51.036;5.852;2023-03-12T12:24:36;15.74;66.40
65995;HTU21D;52764;51.036;5.852;2023-03-12T12:27:28;15.70;66.05
65995;HTU21D;52764;51.036;5.852;2023-03-12T12:35:35;15.84;65.21
65995;HTU21D;52764;51.036;5.852;2023-03-12T12:40:52;15.95;64.24
65995;HTU21D;52764;51.036;5.852;2023-03-12T12:43:30;16.00;63.74
65995;HTU21D;52764;51.036;5.852;2023-03-12T12:46:10;16.01;63.17
65995;HTU21D;52764;51.036;5.852;2023-03-12T12:51:42;16.19;62.68
65995;HTU21D;52764;51.036;5.852;2023-03-12T12:59:22;16.07;61.90
65995;HTU21D;52764;51.036;5.852;2023-03-12T13:01:52;16.02;61.64
65995;HTU21D;52764;51.036;5.852;2023-03-12T13:04:35;16.02;61.51
65995;HTU21D;52764;51.036;5.852;2023-03-12T13:14:59;15.58;62.01
65995;HTU21D;52764;51.036;5.852;2023-03-12T13:20:18;15.41;62.54
65995;HTU21D;52764;51.036;5.852;2023-03-12T13:30:56;15.29;63.34
65995;HTU21D;52764;51.036;5.852;2023-03-12T13:33:42;15.32;63.44
65995;HTU21D;52764;51.036;5.852;2023-03-12T13:36:19;15.42;63.50
65995;HTU21D;52764;51.036;5.852;2023-03-12T13:47:02;15.71;62.18
65995;HTU21D;52764;51.036;5.852;2023-03-12T13:49:51;15.68;61.95
65995;HTU21D;52764;51.036;5.852;2023-03-12T13:55:01;15.49;62.35
65995;HTU21D;52764;51.036;5.852;2023-03-12T13:59:59;14.30;62.29
65995;HTU21D;52764;51.036;5.852;2023-03-12T14:02:35;15.36;62.40
65995;HTU21D;52764;51.036;5.852;2023-03-12T14:05:06;15.45;62.43
65995;HTU21D;52764;51.036;5.852;2023-03-12T14:10:32;15.74;61.65
65995;HTU21D;52764;51.036;5.852;2023-03-12T14:15:51;15.93;61.01
65995;HTU21D;52764;51.036;5.852;2023-03-12T14:18:26;16.08;60.61
65995;HTU21D;52764;51.036;5.852;2023-03-12T14:21:00;16.17;60.07
65995;HTU21D;52764;51.036;5.852;2023-03-12T14:23:33;16.20;59.77
65995;HTU21D;52764;51.036;5.852;2023-03-12T14:26:01;16.20;59.35
65995;HTU21D;52764;51.036;5.852;2023-03-12T14:28:29;16.13;59.15
65995;HTU21D;52764;51.036;5.852;2023-03-12T14:31:00;16.04;58.93
65995;HTU21D;52764;51.036;5.852;2023-03-12T14:33:34;15.93;59.07
65995;HTU21D;52764;51.036;5.852;2023-03-12T14:36:06;15.83;58.78
65995;HTU21D;52764;51.036;5.852;2023-03-12T14:38:44;15.83;61.50
65995;HTU21D;52764;51.036;5.852;2023-03-12T14:41:17;15.81;58.70
65995;HTU21D;52764;51.036;5.852;2023-03-12T14:43:43;15.69;60.54
65995;HTU21D;52764;51.036;5.852;2023-03-12T14:46:19;15.60;58.95
65995;HTU21D;52764;51.036;5.852;2023-03-12T14:48:51;15.59;59.13
65995;HTU21D;52764;51.036;5.852;2023-03-12T14:51:23;15.58;58.80
65995;HTU21D;52764;51.036;5.852;2023-03-12T14:53:49;15.57;58.87
65995;HTU21D;52764;51.036;5.852;2023-03-12T14:56:30;-9.98;58.54
65995;HTU21D;52764;51.036;5.852;2023-03-12T14:59:00;15.46;58.56
65995;HTU21D;52764;51.036;5.852;2023-03-12T15:01:29;15.38;58.51
65995;HTU21D;52764;51.036;5.852;2023-03-12T15:03:58;15.27;58.54
65995;HTU21D;52764;51.036;5.852;2023-03-12T15:06:29;15.18;58.68
65995;HTU21D;52764;51.036;5.852;2023-03-12T15:08:57;15.07;59.22
65995;HTU21D;52764;51.036;5.852;2023-03-12T15:11:26;14.98;59.44
65995;HTU21D;52764;51.036;5.852;2023-03-12T15:13:55;15.11;59.21
65995;HTU21D;52764;51.036;5.852;2023-03-12T15:16:22;15.15;59.12
65995;HTU21D;52764;51.036;5.852;2023-03-12T15:18:49;15.15;58.83
65995;HTU21D;52764;51.036;5.852;2023-03-12T15:21:16;15.16;60.14
65995;HTU21D;52764;51.036;5.852;2023-03-12T15:23:44;15.15;57.87
65995;HTU21D;52764;51.036;5.852;2023-03-12T15:29:13;15.14;57.55
65995;HTU21D;52764;51.036;5.852;2023-03-12T15:31:46;15.14;58.12
65995;HTU21D;52764;51.036;5.852;2023-03-12T15:34:32;15.16;58.09
65995;HTU21D;52764;51.036;5.852;2023-03-12T15:37:00;15.15;58.13
65995;HTU21D;52764;51.036;5.852;2023-03-12T15:39:31;15.14;58.01
65995;HTU21D;52764;51.036;5.852;2023-03-12T15:42:08;15.12;58.16
65995;HTU21D;52764;51.036;5.852;2023-03-12T15:44:53;15.13;58.25
65995;HTU21D;52764;51.036;5.852;2023-03-12T15:47:23;15.01;60.08
65995;HTU21D;52764;51.036;5.852;2023-03-12T15:50:04;14.91;58.34
65995;HTU21D;52764;51.036;5.852;2023-03-12T15:52:34;14.85;58.63
65995;HTU21D;52764;51.036;5.852;2023-03-12T15:57:50;14.77;59.38
65995;HTU21D;52764;51.036;5.852;2023-03-12T16:00:23;14.67;59.35
65995;HTU21D;52764;51.036;5.852;2023-03-12T16:05:15;14.58;59.51
65995;HTU21D;52764;51.036;5.852;2023-03-12T16:07:41;14.55;59.66
65995;HTU21D;52764;51.036;5.852;2023-03-12T16:10:14;14.54;59.88
65995;HTU21D;52764;51.036;5.852;2023-03-12T16:12:43;14.48;59.66
65995;HTU21D;52764;51.036;5.852;2023-03-12T16:15:14;14.40;60.05
65995;HTU21D;52764;51.036;5.852;2023-03-12T16:17:41;14.49;59.80
65995;HTU21D;52764;51.036;5.852;2023-03-12T16:20:13;14.41;59.68
65995;HTU21D;52764;51.036;5.852;2023-03-12T16:22:40;14.40;59.78
65995;HTU21D;52764;51.036;5.852;2023-03-12T16:25:07;14.33;59.77
65995;HTU21D;52764;51.036;5.852;2023-03-12T16:27:33;14.33;59.95
65995;HTU21D;52764;51.036;5.852;2023-03-12T16:30:15;14.29;60.02
65995;HTU21D;52764;51.036;5.852;2023-03-12T16:32:41;14.26;60.24
65995;HTU21D;52764;51.036;5.852;2023-03-12T16:35:19;14.32;60.39
65995;HTU21D;52764;51.036;5.852;2023-03-12T16:37:45;14.32;64.01
65995;HTU21D;52764;51.036;5.852;2023-03-12T16:40:13;14.57;60.23
65995;HTU21D;52764;51.036;5.852;2023-03-12T16:42:43;14.39;60.34
65995;HTU21D;52764;51.036;5.852;2023-03-12T16:45:12;14.43;60.31
65995;HTU21D;52764;51.036;5.852;2023-03-12T16:47:40;14.42;60.25
65995;HTU21D;52764;51.036;5.852;2023-03-12T16:50:16;14.42;60.37
65995;HTU21D;52764;51.036;5.852;2023-03-12T16:52:43;14.42;63.97
65995;HTU21D;52764;51.036;5.852;2023-03-12T16:55:14;14.41;60.53
65995;HTU21D;52764;51.036;5.852;2023-03-12T16:57:45;14.35;60.67
65995;HTU21D;52764;51.036;5.852;2023-03-12T17:00:19;14.36;60.75
65995;HTU21D;52764;51.036;5.852;2023-03-12T17:02:47;14.34;60.82
65995;HTU21D;52764;51.036;5.852;2023-03-12T17:05:14;14.30;60.96
65995;HTU21D;52764;51.036;5.852;2023-03-12T17:07:40;14.24;61.14
65995;HTU21D;52764;51.036;5.852;2023-03-12T17:10:07;14.15;61.34
65995;HTU21D;52764;51.036;5.852;2023-03-12T17:12:38;14.13;61.67
65995;HTU21D;52764;51.036;5.852;2023-03-12T17:15:13;14.10;61.71
65995;HTU21D;52764;51.036;5.852;2023-03-12T17:17:40;14.14;61.87
65995;HTU21D;52764;51.036;5.852;2023-03-12T17:20:06;14.11;61.79
65995;HTU21D;52764;51.036;5.852;2023-03-12T17:22:35;14.13;61.81
65995;HTU21D;52764;51.036;5.852;2023-03-12T17:25:02;14.10;61.77
65995;HTU21D;52764;51.036;5.852;2023-03-12T17:27:28;14.08;61.53
65995;HTU21D;52764;51.036;5.852;2023-03-12T17:29:53;14.04;61.86
65995;HTU21D;52764;51.036;5.852;2023-03-12T17:32:19;14.00;61.99
65995;HTU21D;52764;51.036;5.852;2023-03-12T17:34:45;13.98;62.21
65995;HTU21D;52764;51.036;5.852;2023-03-12T17:37:11;14.00;62.15
65995;HTU21D;52764;51.036;5.852;2023-03-12T17:39:36;13.94;62.29
65995;HTU21D;52764;51.036;5.852;2023-03-12T17:42:02;13.91;62.39
65995;HTU21D;52764;51.036;5.852;2023-03-12T17:44:31;13.94;62.33
65995;HTU21D;52764;51.036;5.852;2023-03-12T17:47:00;13.90;62.60
65995;HTU21D;52764;51.036;5.852;2023-03-12T17:49:27;13.88;62.96
65995;HTU21D;52764;51.036;5.852;2023-03-12T17:51:53;13.89;63.03